Terminal Aerodrome Forecast
Issued by NWS

Home | Current Version | Previous Version | Text Only | Print | Product List | Glossary On
Versions: 1 2 3 4 5 6 7 8 9 10 11 12 13 14 15 16 17 18
648
FTUS44 KLZK 260540
TAFHRO
TAF
KHRO 260540Z 2606/2706 34012KT P6SM VCSH SCT015 OVC040
      TEMPO 2606/2609 6SM -RA OVC015
     FM260900 34008KT P6SM BKN040 OVC100
     FM261300 36009KT P6SM SCT100 BKN250
     FM261600 35008KT P6SM SKC=

USA.gov is the U.S. government's official web portal to all federal, state and local government web resources and services.